WetterOnline ( http://www.wetteronline.de )

Wetter aktuell Inchenhofen

Aktuelles Wetter: Augsburg/Mühlhausen (477m)

6-stündlich | Neueste Meldungen
Ortszeit Temperatur Wetter
So, 24.03. 19:00 11.4° C bewölkt
So, 24.03. 13:00 16.3° C wolkenlos
So, 24.03. 7:00 -1.4° C Nebel
So, 24.03. 1:00 0.9° C wolkenlos
Sa, 23.03. 19:00 8.6° C wolkenlos
Sa, 23.03. 13:00 16.6° C wolkenlos
Sa, 23.03. 7:00 1.0° C leicht bewölkt
Sa, 23.03. 1:00 3.8° C wolkenlos
Ortszeit Temperatur Wetter
So, 24.03. 22:50 4° C -
So, 24.03. 22:30 4.8° C wolkenlos
So, 24.03. 22:20 4.8° C wolkenlos
So, 24.03. 22:10 6.4° C wolkenlos
So, 24.03. 22:00 7.2° C wolkenlos
So, 24.03. 21:50 7.2° C wolkenlos
So, 24.03. 21:30 8.0° C leicht bewölkt
So, 24.03. 21:00 8.3° C leicht bewölkt
So, 24.03. 20:30 9.4° C bewölkt
So, 24.03. 20:00 9.3° C wolkig
So, 24.03. 19:30 10.5° C bedeckt
Ortszeit Relative Feuchte Sichtweite
So, 24.03. 19:00 66% 5.0 km
So, 24.03. 13:00 46% 8 km
So, 24.03. 7:00 96% 0.2 km
So, 24.03. 1:00 92% 4.0 km
Sa, 23.03. 19:00 74% 12 km
Sa, 23.03. 13:00 42% 9 km
Sa, 23.03. 7:00 86% 7 km
Sa, 23.03. 1:00 78% 10 km
Ortszeit Relative Feuchte Sichtweite
So, 24.03. 22:50 93% 5.0 km
So, 24.03. 22:30 86% 2.9 km
So, 24.03. 22:20 86% -
So, 24.03. 22:10 86% -
So, 24.03. 22:00 82% 3.9 km
So, 24.03. 21:50 82% -
So, 24.03. 21:30 77% 4.7 km
So, 24.03. 21:00 76% 4.7 km
So, 24.03. 20:30 72% 5.0 km
So, 24.03. 20:00 72% 4.8 km
So, 24.03. 19:30 68% 5.0 km
Ortszeit Niederschlagsmenge Niederschlagsart
So, 24.03. 19:00 0.0 l/m2 in 12 Std. -
So, 24.03. 13:00 0.0 l/m2 in 6 Std. -
So, 24.03. 7:00 0.0 l/m2 in 12 Std. -
So, 24.03. 1:00 0.0 l/m2 in 6 Std. -
Sa, 23.03. 19:00 0.0 l/m2 in 12 Std. -
Sa, 23.03. 13:00 0.0 l/m2 in 6 Std. -
Sa, 23.03. 7:00 0.0 l/m2 in 12 Std. -
Sa, 23.03. 1:00 0.0 l/m2 in 6 Std. -
Ortszeit Niederschlagsmenge Niederschlagsart
So, 24.03. 22:50 keine Meldung -
So, 24.03. 22:30 0.0 l/m2 in 1 Std. -
So, 24.03. 22:20 keine Meldung -
So, 24.03. 22:10 keine Meldung -
So, 24.03. 22:00 0.0 l/m2 in 1 Std. -
So, 24.03. 21:50 keine Meldung -
So, 24.03. 21:30 0.0 l/m2 in 1 Std. -
So, 24.03. 21:00 0.0 l/m2 in 1 Std. -
So, 24.03. 20:30 0.0 l/m2 in 1 Std. -
So, 24.03. 20:00 0.0 l/m2 in 1 Std. -
So, 24.03. 19:30 0.0 l/m2 in 1 Std. -
Ortszeit Stärke Spitze Richtung
km/h Bft. km/h Grad Sektor
So, 24.03. 19:00 22 4 36 360° N
So, 24.03. 13:00 7 2 14 330° NW
So, 24.03. 7:00 4 1 7 160° S
So, 24.03. 1:00 4 1 11 160° S
Sa, 23.03. 19:00 7 2 22 90° O
Sa, 23.03. 13:00 7 2 14 200° S
Sa, 23.03. 7:00 7 2 13 170° S
Sa, 23.03. 1:00 9 2 11 160° S
Ortszeit Stärke Spitze Richtung
km/h Bft. km/h Grad Sektor
So, 24.03. 22:50 4 1 - uml. uml.
So, 24.03. 22:30 7 2 7 240° SW
So, 24.03. 22:20 7 2 - 240° SW
So, 24.03. 22:10 7 2 - 240° SW
So, 24.03. 22:00 4 1 11 290° W
So, 24.03. 21:50 4 1 - 290° W
So, 24.03. 21:30 7 2 11 330° NW
So, 24.03. 21:00 11 2 29 350° N
So, 24.03. 20:30 18 3 29 350° N
So, 24.03. 20:00 11 2 29 350° N
So, 24.03. 19:30 13 3 28 360° N
Ortszeit Untergrenze Bedeckung Gattung
total tief tief mittel hoch
So, 24.03. 19:00 1800 m 7/8 7/8 - - -
So, 24.03. 13:00 - 0/8 0/8 - - -
So, 24.03. 7:00 - 0/8 0/8 - - -
So, 24.03. 1:00 - 0/8 0/8 - - -
Sa, 23.03. 19:00 - 0/8 0/8 - - -
Sa, 23.03. 13:00 - 0/8 0/8 - - -
Sa, 23.03. 7:00 10500 m 4/8 0/8 - - -
Sa, 23.03. 1:00 - 0/8 0/8 - - -
Ortszeit Bedeckungsgrad in Achtel und Wolkenuntergrenze
So, 24.03. 22:50 -
So, 24.03. 22:30 keine Wolken
So, 24.03. 22:20 keine Wolken
So, 24.03. 22:10 keine Wolken
So, 24.03. 22:00 keine Wolken
So, 24.03. 21:50 keine Wolken
So, 24.03. 21:30 2(2400m)
So, 24.03. 21:00 4(2400m)
So, 24.03. 20:30 6(1800m) 7(2400m)
So, 24.03. 20:00 5(1800m) 5(2100m)
So, 24.03. 19:30 8(1800m)
Ortszeit Luftdruck NN (hPa) Tendenz (hPa in 3 Std.)
So, 24.03. 19:00 1021 + 1,2
So, 24.03. 13:00 1021 - 1,7
So, 24.03. 7:00 1027 - 0,2
So, 24.03. 1:00 1028 - 1,0
Sa, 23.03. 19:00 1027 + 0,1
Sa, 23.03. 13:00 1026 - 1,0
Sa, 23.03. 7:00 1031 + 0,4
Sa, 23.03. 1:00 1030 - 0,3
Ortszeit Luftdruck NN (hPa) Tendenz (hPa in 3 Std.)
So, 24.03. 22:50 1021 keine Meldung
So, 24.03. 22:30 1024 + 0,3
So, 24.03. 22:20 1024 keine Meldung
So, 24.03. 22:10 1023 keine Meldung
So, 24.03. 22:00 1023 + 1,1
So, 24.03. 21:50 1023 keine Meldung
So, 24.03. 21:30 1023 + 1,7
So, 24.03. 21:00 1023 + 2,2
So, 24.03. 20:30 1023 + 2,1
So, 24.03. 20:00 1023 + 2,0
So, 24.03. 19:30 1022 + 1,8
Ortszeit Schneehöhe (cm)
So, 24.03. 19:00 0
So, 24.03. 13:00 0
So, 24.03. 7:00 1
So, 24.03. 1:00 0
Sa, 23.03. 19:00 0
Sa, 23.03. 13:00 0
Sa, 23.03. 7:00 0
Sa, 23.03. 1:00 0
Ortszeit Schneehöhe (cm)
So, 24.03. 22:50 -
So, 24.03. 22:30 0
So, 24.03. 22:20 0
So, 24.03. 22:10 0
So, 24.03. 22:00 0
So, 24.03. 21:50 0
So, 24.03. 21:30 0
So, 24.03. 21:00 0
So, 24.03. 20:30 0
So, 24.03. 20:00 0
So, 24.03. 19:30 0
Link zu dieser Seite / Seite empfehlen

Das Wetter in ...